Evansville Regional Airport Evansville US
ICAO: KEVV
IATA: EVV
Category: Medium
Scheduled Services: Yes

Elevation: 418 ft
TransAlt. 18000 ft.

Airport Communications:
APP/DEP:126.4
ATIS:120.2
CLNC DEL:126.6
CTAF:118.7
GND:121.9
TERRE HAUTE RDO:122.65
TWR:118.7
UNICOM:122.95

KEVV Zoom In..

Runways:

(A) RW 04 length 8020 ft width 150 ft
ILS 109.90 / hdg 38

(B) RW 09 length 3497 ft width 75 ft
---- / hdg 91

(C) RW 18 length 6286 ft width 150 ft
---- / hdg 181

(D) RW 22 length 8020 ft width 150 ft
ILS 109.90 / hdg 218

(E) RW 27 length 3497 ft width 75 ft
---- / hdg 271

(F) RW 36 length 6286 ft width 150 ft
---- / hdg 1

Location; KEVV
Day. 16 / Time. 17.54 Zulu
* Altimeter: 29.97
* Temperature: 31° c. 87.8°f.
* Wind from: VRB° Speed 04 kn.
Dewpoint: 23° c.
Visibility: 10 Statute Miles.
Clouds: Few 2500 ft.
Clouds: Scattered 3200 ft.
Clouds: Broken 4200 ft.

KEVV 161754Z VRB04KT 10SM FEW025 SCT032 BKN042 31/23 A2997 RMK AO2 SLP143 T03060233 10306 20233 58005 $


Wind From VRB°
Speed 04 kn.

 
 
jpsmedia.com for Web Design worldairports.se 2018   terms of use